Skip to Main Content
SEARCH:
Location Air RH Dwp Precip Type Wind Speed Wind Gust Direction Pavement Temperature Date/Time
Hatem Bridge US 40 E/B 77 27 41 None Calm 4 mph NW 104 - 104 5/24/2018 1:14:00 PM
I-270 at I-370 79 37 51 None Calm Calm SE 112 - 117 5/24/2018 1:10:00 PM
I-270 at MD-109 81 40 55 None Calm 7 mph NW 110 - 112 5/24/2018 1:10:00 PM
I-495 at American Legion Bridge 80 30 46 None Calm 8 mph SE 112 - 112 5/24/2018 1:10:00 PM
I-68 at Savage Mt - - - No Data Available - - No Data Available -
I-68 at Sideling Hill 77 40 52 None Calm 7 mph SW 112 - 115 5/24/2018 1:10:00 PM
I-68 at US 219 71 39 45 None 8 mph 16 mph E 107 - 108 5/24/2018 1:10:00 PM
I-68 at WV Line 76 29 42 None Calm 9 mph S 103 - 109 5/24/2018 1:10:00 PM
I-695 at I-83 79 30 46 None 5 mph 11 mph N 107 - 109 5/24/2018 1:10:00 PM
I-695 on FSK Bridge 74 45 52 None 11 mph 12 mph W 97 - 97 5/24/2018 1:14:00 PM
I-70 at Fred-Wash Co. 77 42 53 None 4 mph 7 mph NW 112 - 115 5/24/2018 1:10:00 PM
I-70 at I-695 80 28 45 None 4 mph 11 mph W 111 - 78 5/24/2018 1:10:00 PM
I-70 at I-81 79 33 48 None Calm 5 mph E - 5/24/2018 1:10:00 PM
I-70 at MD-27 80 42 55 None Calm 7 mph E 112 - 114 5/24/2018 1:10:00 PM
I-70 at MD-32 80 31 47 None Calm 7 mph NE 112 - 120 5/24/2018 1:10:00 PM
I-83 at MD-137 79 32 48 None 4 mph 10 mph NE 112 - 112 5/24/2018 1:10:00 PM
I-95 at I-695 NE 79 29 45 None 6 mph 8 mph NW 111 - 123 5/24/2018 1:14:00 PM
I-95 at Patuxent River 82 27 45 None 4 mph 13 mph SE 106 - 108 5/24/2018 1:10:00 PM
I-95 at Tydings Bridge 81 38 53 None Calm 9 mph W 108 - 112 5/24/2018 1:10:00 PM
I-95/495 at I-295 86 30 51 None 6 mph 11 mph N 112 - 82 5/24/2018 1:10:00 PM
I-97 at MD-100 82 26 44 None 7 mph 12 mph NE 112 - 115 5/24/2018 1:10:00 PM
I-97 at MD-32 81 25 43 None - - No Data Available 107 - 118 5/24/2018 1:10:00 PM
IS 70 W of I-270 - - - No Data Available - - No Data Available 114 - 114 5/24/2018 1:10:00 PM
MD 136 @ MD 646 77 36 49 No Data Available 4 mph 9 mph E 121 - 121 5/24/2018 1:10:00 PM
MD 20 at MD 21 79 31 46 None Calm 8 mph NW 125 - 125 5/24/2018 1:10:00 PM
MD 23 at Meadowtree Road 77 39 50 No Data Available Calm 4 mph N 125 - 125 5/24/2018 1:10:00 PM
MD 231 at Patuxent River 80 39 53 None 7 mph 9 mph NE 114 - 117 5/24/2018 1:10:00 PM
MD 24 at Jarrettsville Road 78 29 43 No Data Available Calm 8 mph S 123 - 123 5/24/2018 1:10:00 PM
MD 260 at Cox Rd 78 44 55 None Calm 6 mph N 123 - 123 5/24/2018 1:10:00 PM
MD-135 at Salt Dome 70 40 45 None 6 mph 15 mph SE 112 - 112 5/24/2018 1:10:00 PM
MD-140 at MD-97 78 37 50 None 4 mph 11 mph NW 111 - 117 5/24/2018 1:10:00 PM
MD-200 EB at Bonifant Rd - - - No Data Available - - No Data Available -
MD-200 WB at Muncaster Mill Rd 80 33 48 None 4 mph 11 mph E 110 - 110 5/24/2018 1:14:00 PM
MD-213 at Sassafras River 81 32 49 None Calm 7 mph N 117 - 117 5/24/2018 1:10:00 PM
MD-24 at Rock St Park 77 37 50 None Calm 9 mph NE 98 - 98 5/24/2018 1:10:00 PM
MD-30 at PA Line 75 42 50 None 7 mph 12 mph N 113 - 113 5/24/2018 1:10:00 PM
MD-33 at Knapps Narrows Drawbridge 76 60 61 None 8 mph 12 mph NW 128 - 128 5/24/2018 1:10:00 PM
MD-344 at MD-224 80 38 52 None Calm 4 mph N 118 - 118 5/24/2018 1:10:00 PM
MD-4 at Patuxent River 78 44 55 None 14 mph 17 mph NW 108 - 111 5/24/2018 1:14:00 PM
MD-404 at Choptank River 79 38 51 None Calm 10 mph NE 114 - 116 5/24/2018 1:10:00 PM
MD-43 at MD-150 81 30 46 None Calm 9 mph SE 115 - 115 5/24/2018 1:10:00 PM
MD-51 at Oldtown Salt Dome 78 47 56 None Calm 4 mph E 122 - 122 5/24/2018 1:10:00 PM
MD-64 at MD-418 77 38 50 None 6 mph 9 mph NW 120 - 122 5/24/2018 1:10:00 PM
US 301 at MD 305 78 38 51 None 4 mph 8 mph W 118 - 124 5/24/2018 1:10:00 PM
US-1 at Baltimore / Harford Co. Line 80 36 51 None Calm 8 mph NW 107 - 114 5/24/2018 1:10:00 PM
US-1 at Conowingo Dam 82 38 54 None Calm Calm SW 115 - 115 5/24/2018 1:10:00 PM
US-13 at US-113 81 43 56 None 4 mph 6 mph NE 129 - 129 5/24/2018 1:10:00 PM
US-13 at US-50 79 46 57 None 6 mph 14 mph SE 115 - 115 5/24/2018 1:10:00 PM
US-15 at MD-140 80 42 55 None Calm 6 mph S 112 - 115 5/24/2018 1:10:00 PM
US-301 at MD-5 81 34 51 None 4 mph 14 mph N 113 - 117 5/24/2018 1:10:00 PM
US-301 at Potomac 83 56 66 None 5 mph 9 mph NW 105 - 112 5/24/2018 1:14:00 PM
US-340 at MD-180 77 39 51 None 5 mph 13 mph E 115 - 119 5/24/2018 1:10:00 PM
US-50 at Choptank 78 64 64 None 9 mph 12 mph W 111 - 112 5/24/2018 1:10:00 PM
US-50 at I-95 83 30 50 None Calm 7 mph N 109 - 155 5/24/2018 1:10:00 PM
US-50 at MD-2 80 31 47 None Calm 8 mph NW 111 - 113 5/24/2018 1:10:00 PM
US-50 at MD-331 84 41 58 None Calm 6 mph N 113 - 130 5/24/2018 1:10:00 PM
US-50 at OC Drawbridge 73 57 57 None 11 mph 18 mph NE 116 - 116 5/24/2018 1:10:00 PM
US-50 at Table Rock Rd 68 39 43 None 7 mph 13 mph E 112 - 112 5/24/2018 1:10:00 PM
US-50 Kent Narrow Bridge 79 40 53 None 7 mph 10 mph NW 106 - 107 5/24/2018 1:10:00 PM
WPL Pier 31 73 32 42 None 9 mph 10 mph N 107 - 107 5/24/2018 1:14:00 PM
Location Air RH Dwp Precip Type Wind Speed Wind Gust Direction Pavement Temperature Date/Time